createdAt,value
2018-07-09T00:00:46.309Z,15.75
2018-07-09T00:01:46.316Z,15.77
2018-07-09T00:02:46.305Z,15.78
2018-07-09T00:03:46.298Z,15.71
2018-07-09T00:04:45.777Z,15.7
2018-07-09T00:05:46.298Z,15.68
2018-07-09T00:06:46.297Z,15.6
2018-07-09T00:07:46.028Z,15.67
2018-07-09T00:08:46.276Z,15.58
2018-07-09T00:09:46.272Z,15.62
2018-07-09T00:10:46.269Z,15.53
2018-07-09T00:11:46.005Z,15.56
2018-07-09T00:12:46.002Z,15.51
2018-07-09T00:13:46.253Z,15.47
2018-07-09T00:14:46.251Z,15.38
2018-07-09T00:15:45.990Z,15.45
2018-07-09T00:16:46.244Z,15.41
2018-07-09T00:17:46.238Z,15.31
2018-07-09T00:18:46.232Z,15.37
2018-07-09T00:19:46.228Z,15.47
2018-07-09T00:20:46.223Z,15.35
2018-07-09T00:21:45.961Z,15.34
2018-07-09T00:22:46.215Z,15.37
2018-07-09T00:23:46.209Z,15.4
2018-07-09T00:24:45.947Z,15.45
2018-07-09T00:25:45.691Z,15.37
2018-07-09T00:26:46.192Z,15.37
2018-07-09T00:27:46.190Z,15.41
2018-07-09T00:28:46.191Z,15.4
2018-07-09T00:29:45.924Z,15.41
2018-07-09T00:30:45.921Z,15.4
2018-07-09T00:31:45.913Z,15.43
2018-07-09T00:32:45.909Z,15.41
2018-07-09T00:33:45.904Z,15.35
2018-07-09T00:34:46.159Z,15.33
2018-07-09T00:35:45.894Z,15.4
2018-07-09T00:36:45.889Z,15.34
2018-07-09T00:37:45.884Z,15.35
2018-07-09T00:38:46.170Z,15.27
2018-07-09T00:39:46.136Z,15.27
2018-07-09T00:40:46.131Z,15.22
2018-07-09T00:41:46.131Z,15.2
2018-07-09T00:42:45.863Z,15.25
2018-07-09T00:43:45.862Z,15.19
2018-07-09T00:44:45.854Z,15.22
2018-07-09T00:45:46.157Z,15.23
2018-07-09T00:46:46.115Z,15.13
2018-07-09T00:47:46.095Z,15.08
2018-07-09T00:48:46.090Z,15.12
2018-07-09T00:49:46.086Z,15.07
2018-07-09T00:50:45.825Z,15.01
2018-07-09T00:51:46.088Z,15.02
2018-07-09T00:52:46.072Z,15.02
2018-07-09T00:53:46.068Z,14.97
2018-07-09T00:54:46.068Z,14.89
2018-07-09T00:55:46.056Z,14.83
2018-07-09T00:56:46.059Z,14.77
2018-07-09T00:57:45.788Z,14.71
2018-07-09T00:58:46.047Z,14.77
2018-07-09T00:59:45.785Z,14.6
2018-07-09T01:00:46.035Z,14.64
2018-07-09T01:01:46.027Z,14.52
2018-07-09T01:02:45.772Z,14.51
2018-07-09T01:03:46.017Z,14.45
2018-07-09T01:04:46.011Z,14.52
2018-07-09T01:05:45.749Z,14.53
2018-07-09T01:06:45.743Z,14.45
2018-07-09T01:07:45.999Z,14.44
2018-07-09T01:08:45.993Z,14.34
2018-07-09T01:09:45.990Z,14.34
2018-07-09T01:10:45.467Z,14.34
2018-07-09T01:11:45.979Z,14.38
2018-07-09T01:12:45.969Z,14.33
2018-07-09T01:13:45.967Z,14.31
2018-07-09T01:14:46.004Z,14.31
2018-07-09T01:15:45.957Z,14.42
2018-07-09T01:16:45.959Z,14.34
2018-07-09T01:17:45.947Z,14.33
2018-07-09T01:18:45.684Z,14.28
2018-07-09T01:19:45.419Z,14.3
2018-07-09T01:20:45.933Z,14.3
2018-07-09T01:21:45.935Z,14.21
2018-07-09T01:22:45.918Z,14.12
2018-07-09T01:23:45.916Z,14.21
2018-07-09T01:24:45.910Z,14.15
2018-07-09T01:25:45.640Z,14.19
2018-07-09T01:26:45.903Z,14.16
2018-07-09T01:27:45.640Z,14.21
2018-07-09T01:28:45.882Z,14.09
2018-07-09T01:29:45.876Z,14.11
2018-07-09T01:30:45.876Z,14.05
2018-07-09T01:31:45.869Z,14.08
2018-07-09T01:32:45.864Z,14.02
2018-07-09T01:33:45.352Z,14.06
2018-07-09T01:34:45.857Z,14.11
2018-07-09T01:35:45.592Z,13.94
2018-07-09T01:36:45.841Z,14.05
2018-07-09T01:37:45.585Z,14.11
2018-07-09T01:38:45.831Z,14.08
2018-07-09T01:39:45.569Z,14.09
2018-07-09T01:40:45.564Z,14.05
2018-07-09T01:41:45.811Z,14.02
2018-07-09T01:42:45.807Z,14.06
2018-07-09T01:43:45.802Z,13.99
2018-07-09T01:44:45.801Z,14.01
2018-07-09T01:45:45.799Z,13.99
2018-07-09T01:46:45.794Z,13.95
2018-07-09T01:47:45.783Z,13.94
2018-07-09T01:48:45.777Z,13.87
2018-07-09T01:49:45.782Z,13.91
2018-07-09T01:50:45.250Z,13.83
2018-07-09T01:51:45.760Z,13.83
2018-07-09T01:52:45.755Z,13.7
2018-07-09T01:53:45.745Z,13.7
2018-07-09T01:54:45.484Z,13.72
2018-07-09T01:55:45.732Z,13.75
2018-07-09T01:56:45.219Z,13.68
2018-07-09T01:57:45.207Z,13.53
2018-07-09T01:58:45.722Z,13.55
2018-07-09T01:59:45.713Z,13.58
2018-07-09T02:00:45.710Z,13.51
2018-07-09T02:01:45.440Z,13.45
2018-07-09T02:02:45.694Z,13.48
2018-07-09T02:03:45.691Z,13.4
2018-07-09T02:04:45.686Z,13.4
2018-07-09T02:05:45.419Z,13.47
2018-07-09T02:06:45.413Z,13.48
2018-07-09T02:07:45.671Z,13.4
2018-07-09T02:08:45.661Z,13.45
2018-07-09T02:09:45.136Z,13.37
2018-07-09T02:10:45.643Z,13.36
2018-07-09T02:11:45.638Z,13.28
2018-07-09T02:12:45.636Z,13.29
2018-07-09T02:13:45.627Z,13.25
2018-07-09T02:14:45.625Z,13.32
2018-07-09T02:15:45.357Z,13.2
2018-07-09T02:16:45.610Z,13.28
2018-07-09T02:17:45.605Z,13.16
2018-07-09T02:18:45.339Z,13.07
2018-07-09T02:19:45.591Z,13.13
2018-07-09T02:20:45.584Z,13.09
2018-07-09T02:21:45.580Z,13.07
2018-07-09T02:22:45.572Z,13.11
2018-07-09T02:23:45.570Z,13.13
2018-07-09T02:24:45.557Z,13.01
2018-07-09T02:25:45.551Z,12.92
2018-07-09T02:26:45.548Z,12.96
2018-07-09T02:27:45.539Z,12.96
2018-07-09T02:28:45.535Z,12.96
2018-07-09T02:29:45.535Z,12.96
2018-07-09T02:30:45.265Z,12.91
2018-07-09T02:31:45.514Z,12.89
2018-07-09T02:32:45.276Z,12.89
2018-07-09T02:33:45.501Z,12.91
2018-07-09T02:34:45.503Z,12.88
2018-07-09T02:35:45.483Z,12.89
2018-07-09T02:36:45.228Z,12.76
2018-07-09T02:37:45.491Z,12.81
2018-07-09T02:38:45.471Z,12.71
2018-07-09T02:39:45.204Z,12.77
2018-07-09T02:40:45.458Z,12.81
2018-07-09T02:41:45.190Z,12.77
2018-07-09T02:42:45.442Z,12.71
2018-07-09T02:43:45.433Z,12.77
2018-07-09T02:44:45.433Z,12.71
2018-07-09T02:45:45.433Z,12.66
2018-07-09T02:46:45.171Z,12.7
2018-07-09T02:47:45.419Z,12.59
2018-07-09T02:48:45.160Z,12.62
2018-07-09T02:49:45.396Z,12.62
2018-07-09T02:50:45.389Z,12.62
2018-07-09T02:51:45.381Z,12.51
2018-07-09T02:52:45.381Z,12.48
2018-07-09T02:53:45.110Z,12.53
2018-07-09T02:54:45.105Z,12.53
2018-07-09T02:55:45.366Z,12.58
2018-07-09T02:56:45.362Z,12.61
2018-07-09T02:57:45.340Z,12.59
2018-07-09T02:58:45.082Z,12.52
2018-07-09T02:59:45.068Z,12.63
2018-07-09T03:00:45.510Z,12.53
2018-07-09T03:01:45.077Z,12.53
2018-07-09T03:02:45.336Z,12.51
2018-07-09T03:03:45.309Z,12.38
2018-07-09T03:04:45.043Z,12.43
2018-07-09T03:05:45.035Z,12.45
2018-07-09T03:06:45.289Z,12.38
2018-07-09T03:07:45.324Z,12.44
2018-07-09T03:08:45.272Z,12.41
2018-07-09T03:09:44.999Z,12.38
2018-07-09T03:10:45.259Z,12.43
2018-07-09T03:11:44.992Z,12.44
2018-07-09T03:12:45.244Z,12.44
2018-07-09T03:13:44.971Z,12.44
2018-07-09T03:14:45.229Z,12.4
2018-07-09T03:15:45.216Z,12.37
2018-07-09T03:16:44.952Z,12.44
2018-07-09T03:17:44.940Z,12.4
2018-07-09T03:18:45.196Z,12.45
2018-07-09T03:19:45.190Z,12.43
2018-07-09T03:20:44.931Z,12.36
2018-07-09T03:21:45.170Z,12.25
2018-07-09T03:22:45.167Z,12.28
2018-07-09T03:23:45.165Z,12.34
2018-07-09T03:24:45.153Z,12.41
2018-07-09T03:25:44.652Z,12.34
2018-07-09T03:26:45.134Z,12.26
2018-07-09T03:27:45.137Z,12.31
2018-07-09T03:28:45.120Z,12.25
2018-07-09T03:29:45.066Z,12.44
2018-07-09T03:30:45.128Z,12.4
2018-07-09T03:31:45.118Z,12.4
2018-07-09T03:32:45.104Z,12.4
2018-07-09T03:33:44.824Z,12.43
2018-07-09T03:34:45.081Z,12.45
2018-07-09T03:35:45.069Z,12.44
2018-07-09T03:36:45.075Z,12.33
2018-07-09T03:37:45.067Z,12.38
2018-07-09T03:38:45.048Z,12.4
2018-07-09T03:39:45.039Z,12.43
2018-07-09T03:40:44.772Z,12.43
2018-07-09T03:41:45.026Z,12.45
2018-07-09T03:42:45.027Z,12.41
2018-07-09T03:43:45.011Z,12.41
2018-07-09T03:44:44.746Z,12.41
2018-07-09T03:45:44.997Z,12.44
2018-07-09T03:46:44.989Z,12.48
2018-07-09T03:47:44.981Z,12.44
2018-07-09T03:48:44.978Z,12.38
2018-07-09T03:49:44.970Z,12.52
2018-07-09T03:50:44.959Z,12.48
2018-07-09T03:51:44.950Z,12.51
2018-07-09T03:52:44.943Z,12.53
2018-07-09T03:53:44.941Z,12.52
2018-07-09T03:54:44.931Z,12.59
2018-07-09T03:55:44.665Z,12.61
2018-07-09T03:56:44.921Z,12.63
2018-07-09T03:57:44.654Z,12.56
2018-07-09T03:58:44.645Z,12.55
2018-07-09T03:59:44.380Z,12.58
2018-07-09T04:00:44.891Z,12.59
2018-07-09T04:01:44.624Z,12.66
2018-07-09T04:02:44.878Z,12.66
2018-07-09T04:03:44.864Z,12.69
2018-07-09T04:04:44.859Z,12.7
2018-07-09T04:05:44.849Z,12.76
2018-07-09T04:06:44.847Z,12.74
2018-07-09T04:07:44.835Z,12.76
2018-07-09T04:08:44.597Z,12.78
2018-07-09T04:09:44.833Z,12.84
2018-07-09T04:10:44.816Z,12.84
2018-07-09T04:11:44.806Z,12.86
2018-07-09T04:12:44.802Z,12.88
2018-07-09T04:13:44.539Z,12.95
2018-07-09T04:14:44.916Z,12.98
2018-07-09T04:15:44.783Z,12.92
2018-07-09T04:16:44.777Z,12.95
2018-07-09T04:17:44.512Z,13.07
2018-07-09T04:18:44.767Z,13.07
2018-07-09T04:19:44.752Z,13.1
2018-07-09T04:20:44.489Z,13.13
2018-07-09T04:21:44.736Z,13.25
2018-07-09T04:22:44.750Z,13.19
2018-07-09T04:23:44.724Z,13.24
2018-07-09T04:24:44.718Z,13.31
2018-07-09T04:25:44.455Z,13.31
2018-07-09T04:26:44.447Z,13.27
2018-07-09T04:27:44.445Z,13.39
2018-07-09T04:28:44.438Z,13.47
2018-07-09T04:29:44.684Z,13.47
2018-07-09T04:30:44.423Z,13.48
2018-07-09T04:31:44.464Z,13.47
2018-07-09T04:32:44.664Z,13.5
2018-07-09T04:33:44.664Z,13.54
2018-07-09T04:34:44.657Z,13.57
2018-07-09T04:35:44.393Z,13.65
2018-07-09T04:36:44.637Z,13.68
2018-07-09T04:37:44.804Z,13.69
2018-07-09T04:38:44.622Z,13.75
2018-07-09T04:39:44.362Z,13.84
2018-07-09T04:40:44.615Z,13.88
2018-07-09T04:41:44.607Z,13.93
2018-07-09T04:42:44.602Z,13.97
2018-07-09T04:43:44.336Z,14.01
2018-07-09T04:44:44.586Z,13.95
2018-07-09T04:45:44.328Z,14.08
2018-07-09T04:46:44.323Z,14.09
2018-07-09T04:47:44.569Z,14.13
2018-07-09T04:48:44.304Z,14.26
2018-07-09T04:49:44.560Z,14.26
2018-07-09T04:50:44.556Z,14.28
2018-07-09T04:51:44.544Z,14.36
2018-07-09T04:52:44.541Z,14.33
2018-07-09T04:53:44.272Z,14.48
2018-07-09T04:54:44.532Z,14.46
2018-07-09T04:55:44.523Z,14.48
2018-07-09T04:56:44.525Z,14.51
2018-07-09T04:57:44.247Z,14.52
2018-07-09T04:58:44.244Z,14.6
2018-07-09T04:59:44.240Z,14.7
2018-07-09T05:00:44.235Z,14.71
2018-07-09T05:01:44.224Z,14.71
2018-07-09T05:02:44.218Z,14.85
2018-07-09T05:03:44.467Z,14.89
2018-07-09T05:04:44.463Z,14.89
2018-07-09T05:05:44.802Z,14.93
2018-07-09T05:06:44.204Z,15.04
2018-07-09T05:07:44.187Z,15.05
2018-07-09T05:08:44.185Z,15.07
2018-07-09T05:09:44.434Z,15.15
2018-07-09T05:10:44.444Z,15.19
2018-07-09T05:11:44.168Z,15.15
2018-07-09T05:12:44.424Z,15.25
2018-07-09T05:13:44.416Z,15.33
2018-07-09T05:14:44.156Z,15.3
2018-07-09T05:15:43.887Z,15.33
2018-07-09T05:16:44.396Z,15.37
2018-07-09T05:17:44.398Z,15.44
2018-07-09T05:18:44.393Z,15.41
2018-07-09T05:19:44.380Z,15.41
2018-07-09T05:20:44.322Z,15.52
2018-07-09T05:21:44.370Z,15.51
2018-07-09T05:22:44.378Z,15.6
2018-07-09T05:23:44.365Z,15.63
2018-07-09T05:24:44.103Z,15.59
2018-07-09T05:25:44.351Z,15.74
2018-07-09T05:26:44.097Z,15.77
2018-07-09T05:27:44.337Z,15.86
2018-07-09T05:28:44.075Z,15.7
2018-07-09T05:29:44.069Z,15.83
2018-07-09T05:30:44.324Z,15.93
2018-07-09T05:31:44.316Z,15.95
2018-07-09T05:32:44.316Z,15.96
2018-07-09T05:33:44.310Z,15.92
2018-07-09T05:34:44.306Z,16.06
2018-07-09T05:35:44.041Z,16.08
2018-07-09T05:36:44.291Z,16.17
2018-07-09T05:37:44.292Z,16.17
2018-07-09T05:38:44.025Z,16.22
2018-07-09T05:39:44.283Z,16.26
2018-07-09T05:40:44.276Z,16.29
2018-07-09T05:41:44.018Z,16.3
2018-07-09T05:42:44.271Z,16.33
2018-07-09T05:43:44.004Z,16.32
2018-07-09T05:44:43.997Z,16.34
2018-07-09T05:45:43.997Z,16.34
2018-07-09T05:46:44.245Z,16.42
2018-07-09T05:47:43.985Z,16.48
2018-07-09T05:48:44.234Z,16.45
2018-07-09T05:49:43.717Z,16.59
2018-07-09T05:50:44.228Z,16.62
2018-07-09T05:51:43.966Z,16.55
2018-07-09T05:52:43.959Z,16.66
2018-07-09T05:53:44.230Z,16.69
2018-07-09T05:54:44.207Z,16.72
2018-07-09T05:55:43.687Z,16.7
2018-07-09T05:56:43.942Z,16.77
2018-07-09T05:57:44.192Z,16.81
2018-07-09T05:58:43.686Z,16.84
2018-07-09T05:59:44.184Z,16.9
2018-07-09T06:00:44.185Z,16.99
2018-07-09T06:01:44.174Z,17
2018-07-09T06:02:44.172Z,17.06
2018-07-09T06:03:44.169Z,17.13
2018-07-09T06:04:44.167Z,17.2
2018-07-09T06:05:43.904Z,17.32
2018-07-09T06:06:44.161Z,17.49
2018-07-09T06:07:44.164Z,17.55
2018-07-09T06:08:44.147Z,17.74
2018-07-09T06:09:44.150Z,17.88
2018-07-09T06:10:44.141Z,17.95
2018-07-09T06:11:44.147Z,18.02
2018-07-09T06:12:43.875Z,18.19
2018-07-09T06:13:44.303Z,18.19
2018-07-09T06:14:43.877Z,18.39
2018-07-09T06:15:44.172Z,18.49
2018-07-09T06:16:44.122Z,18.57
2018-07-09T06:17:43.858Z,18.5
2018-07-09T06:18:43.854Z,18.51
2018-07-09T06:19:44.407Z,18.47
2018-07-09T06:20:43.852Z,18.45
2018-07-09T06:21:44.105Z,18.35
2018-07-09T06:22:44.124Z,18.31
2018-07-09T06:23:44.099Z,18.24
2018-07-09T06:24:43.836Z,18.26
2018-07-09T06:25:44.101Z,18.31
2018-07-09T06:26:44.090Z,18.24
2018-07-09T06:27:44.137Z,18.38
2018-07-09T06:28:44.108Z,18.38
2018-07-09T06:29:44.077Z,18.53
2018-07-09T06:30:44.093Z,18.57
2018-07-09T06:31:44.172Z,18.74
2018-07-09T06:32:44.076Z,18.78
2018-07-09T06:33:44.075Z,18.89
2018-07-09T06:34:44.070Z,18.91
2018-07-09T06:35:44.058Z,18.87
2018-07-09T06:36:44.056Z,18.76
2018-07-09T06:37:44.062Z,18.75
2018-07-09T06:38:44.116Z,18.76
2018-07-09T06:39:43.800Z,18.86
2018-07-09T06:40:43.794Z,18.81
2018-07-09T06:41:44.046Z,18.91
2018-07-09T06:42:44.054Z,18.94
2018-07-09T06:43:43.529Z,18.99
2018-07-09T06:44:43.907Z,19.09
2018-07-09T06:45:43.780Z,19.2
2018-07-09T06:46:44.033Z,19.72
2018-07-09T06:47:43.772Z,20.48
2018-07-09T06:48:44.030Z,21.22
2018-07-09T06:49:43.774Z,21.96
2018-07-09T06:50:44.034Z,22.52
2018-07-09T06:51:44.027Z,23.07
2018-07-09T06:52:44.031Z,23.63
2018-07-09T06:53:44.056Z,24.21
2018-07-09T06:54:44.019Z,24.64
2018-07-09T06:55:44.021Z,24.97
2018-07-09T06:56:43.761Z,25
2018-07-09T06:57:43.774Z,24.94
2018-07-09T06:58:44.021Z,24.86
2018-07-09T06:59:44.018Z,24.67
2018-07-09T07:00:43.762Z,24.96
2018-07-09T07:01:44.023Z,25.22
2018-07-09T07:02:44.024Z,25.6
2018-07-09T07:03:44.027Z,26.11
2018-07-09T07:04:44.021Z,26.67
2018-07-09T07:05:44.028Z,26.91
2018-07-09T07:06:44.027Z,27.12
2018-07-09T07:07:44.035Z,27.08
2018-07-09T07:08:44.281Z,27.24
2018-07-09T07:09:43.776Z,27.53
2018-07-09T07:10:44.034Z,27.89
2018-07-09T07:11:44.039Z,28.21
2018-07-09T07:12:44.040Z,28.45
2018-07-09T07:13:44.043Z,28.51
2018-07-09T07:14:43.793Z,28.58
2018-07-09T07:15:43.791Z,28.79
2018-07-09T07:16:44.056Z,29.03
2018-07-09T07:17:44.056Z,29.36
2018-07-09T07:18:44.069Z,29.43
2018-07-09T07:19:43.803Z,29.51
2018-07-09T07:20:44.085Z,29.54
2018-07-09T07:21:44.096Z,29.69
2018-07-09T07:22:43.558Z,29.72
2018-07-09T07:23:43.563Z,29.81
2018-07-09T07:24:43.828Z,29.84
2018-07-09T07:25:44.086Z,29.82
2018-07-09T07:26:43.852Z,29.6
2018-07-09T07:27:44.094Z,29.6
2018-07-09T07:28:44.099Z,29.55
2018-07-09T07:29:44.108Z,29.32
2018-07-09T07:30:44.116Z,29.29
2018-07-09T07:31:43.855Z,29.1
2018-07-09T07:32:44.219Z,28.51
2018-07-09T07:33:43.868Z,27.84
2018-07-09T07:34:44.161Z,27.24
2018-07-09T07:35:43.895Z,26.5
2018-07-09T07:36:44.139Z,25.88
2018-07-09T07:37:44.141Z,25.38
2018-07-09T07:38:44.146Z,24.97
2018-07-09T07:39:43.891Z,24.59
2018-07-09T07:40:44.155Z,24.55
2018-07-09T07:41:44.162Z,24.44
2018-07-09T07:42:43.902Z,24.46
2018-07-09T07:43:44.172Z,24.18
2018-07-09T07:44:44.174Z,24
2018-07-09T07:45:44.171Z,24.04
2018-07-09T07:46:44.172Z,24.46
2018-07-09T07:47:44.178Z,25.01
2018-07-09T07:48:44.184Z,24.92
2018-07-09T07:49:43.665Z,24.64
2018-07-09T07:50:44.635Z,24.48
2018-07-09T07:51:43.934Z,24.24
2018-07-09T07:52:43.928Z,24.17
2018-07-09T07:53:43.935Z,24.15
2018-07-09T07:54:44.200Z,24.3
2018-07-09T07:55:43.944Z,24.34
2018-07-09T07:56:44.201Z,24.7
2018-07-09T07:57:43.943Z,25.15
2018-07-09T07:58:43.948Z,25.54
2018-07-09T07:59:44.214Z,25.51
2018-07-09T08:00:44.214Z,25.27
2018-07-09T08:01:43.954Z,25.09
2018-07-09T08:02:43.960Z,25.11
2018-07-09T08:03:44.215Z,25.49
2018-07-09T08:04:43.966Z,25.88
2018-07-09T08:05:43.965Z,26.41
2018-07-09T08:06:44.225Z,26.76
2018-07-09T08:07:43.970Z,27.01
2018-07-09T08:08:44.233Z,27.15
2018-07-09T08:09:44.442Z,27.01
2018-07-09T08:10:43.980Z,27.12
2018-07-09T08:11:53.719Z,27.41
2018-07-09T08:13:34.162Z,28.11
2018-07-09T08:14:32.769Z,28.36
2018-07-09T08:15:32.896Z,28.51
2018-07-09T08:16:32.765Z,28.31
2018-07-09T08:17:32.764Z,28.45
2018-07-09T08:18:32.260Z,28.58
2018-07-09T08:19:32.518Z,28.53
2018-07-09T08:20:32.777Z,28.46
2018-07-09T08:21:32.794Z,28.01
2018-07-09T08:22:32.784Z,27.38
2018-07-09T08:23:32.531Z,26.9
2018-07-09T08:24:32.530Z,26.49
2018-07-09T08:25:32.855Z,25.84
2018-07-09T08:26:32.827Z,25.34
2018-07-09T08:27:32.281Z,25.02
2018-07-09T08:28:32.561Z,24.61
2018-07-09T08:29:32.813Z,24.39
2018-07-09T08:30:32.545Z,24.18
2018-07-09T08:31:33.041Z,24.04
2018-07-09T08:32:32.810Z,23.9
2018-07-09T08:33:32.807Z,23.87
2018-07-09T08:34:32.807Z,23.75
2018-07-09T08:35:32.812Z,23.7
2018-07-09T08:36:32.821Z,23.56
2018-07-09T08:37:32.575Z,23.48
2018-07-09T08:38:32.816Z,23.47
2018-07-09T08:39:32.563Z,23.37
2018-07-09T08:40:32.819Z,23.24
2018-07-09T08:41:32.816Z,23.01
2018-07-09T08:42:32.820Z,23
2018-07-09T08:43:32.825Z,23
2018-07-09T08:44:32.827Z,23
2018-07-09T08:45:32.826Z,23.01
2018-07-09T08:46:32.839Z,23.14
2018-07-09T08:47:32.710Z,23.19
2018-07-09T08:48:32.831Z,23.29
2018-07-09T08:49:32.844Z,23.4
2018-07-09T08:50:32.585Z,23.25
2018-07-09T08:51:32.832Z,23.22
2018-07-09T08:52:32.838Z,23.24
2018-07-09T08:53:32.584Z,23.26
2018-07-09T08:54:32.582Z,23.15
2018-07-09T08:55:32.837Z,23.15
2018-07-09T08:56:32.839Z,23.14
2018-07-09T08:57:32.845Z,23.18
2018-07-09T08:58:32.590Z,23.28
2018-07-09T08:59:32.586Z,23.29
2018-07-09T09:00:32.588Z,23.4
2018-07-09T09:01:32.843Z,23.44
2018-07-09T09:02:32.855Z,23.5
2018-07-09T09:03:32.847Z,23.48
2018-07-09T09:04:32.593Z,23.66
2018-07-09T09:05:32.594Z,23.87
2018-07-09T09:06:32.855Z,23.93
2018-07-09T09:07:32.856Z,24
2018-07-09T09:08:32.593Z,24.14
2018-07-09T09:09:32.856Z,24.17
2018-07-09T09:10:32.952Z,24.11
2018-07-09T09:11:32.880Z,24.08
2018-07-09T09:12:32.861Z,24.17
2018-07-09T09:13:32.863Z,24.12
2018-07-09T09:14:32.602Z,24.19
2018-07-09T09:15:32.863Z,24.24
2018-07-09T09:16:33.022Z,24.45
2018-07-09T09:17:32.863Z,24.48
2018-07-09T09:18:32.607Z,24.67
2018-07-09T09:19:32.613Z,24.83
2018-07-09T09:20:32.868Z,25.01
2018-07-09T09:21:32.617Z,25.17
2018-07-09T09:22:32.870Z,25
2018-07-09T09:23:32.620Z,24.85
2018-07-09T09:24:32.875Z,24.63
2018-07-09T09:25:33.034Z,24.45
2018-07-09T09:26:32.881Z,24.55
2018-07-09T09:27:32.369Z,24.51
2018-07-09T09:28:32.626Z,24.36
2018-07-09T09:29:32.630Z,24.29
2018-07-09T09:30:32.892Z,24.32
2018-07-09T09:31:32.547Z,24.18
2018-07-09T09:32:32.892Z,24.32
2018-07-09T09:33:32.942Z,24.24
2018-07-09T09:34:32.896Z,24.24
2018-07-09T09:35:32.897Z,24.21
2018-07-09T09:36:32.644Z,24.29
2018-07-09T09:37:33.238Z,24.33
2018-07-09T09:38:32.899Z,24.46
2018-07-09T09:39:32.906Z,24.44
2018-07-09T09:40:32.913Z,24.4
2018-07-09T09:41:32.912Z,24.34
2018-07-09T09:42:32.914Z,24.29
2018-07-09T09:43:32.654Z,24.27
2018-07-09T09:44:32.912Z,24.48
2018-07-09T09:45:32.925Z,24.55
2018-07-09T09:46:32.934Z,24.63
2018-07-09T09:47:32.663Z,24.63
2018-07-09T09:48:32.661Z,24.58
2018-07-09T09:49:32.712Z,24.69
2018-07-09T09:50:32.666Z,24.7
2018-07-09T09:51:32.672Z,24.58
2018-07-09T09:52:32.930Z,24.55
2018-07-09T09:53:32.674Z,24.51
2018-07-09T09:54:32.935Z,24.42
2018-07-09T09:55:32.678Z,24.39
2018-07-09T09:56:32.682Z,24.29
2018-07-09T09:57:32.936Z,24.32
2018-07-09T09:58:32.940Z,24.36
2018-07-09T09:59:32.942Z,24.32
2018-07-09T10:00:32.769Z,24.19
2018-07-09T10:01:32.944Z,24.14
2018-07-09T10:02:32.693Z,24.21
2018-07-09T10:03:32.953Z,24.21
2018-07-09T10:04:32.694Z,24.27
2018-07-09T10:05:32.700Z,24.29
2018-07-09T10:06:32.752Z,24.3
2018-07-09T10:07:32.708Z,24.32
2018-07-09T10:08:33.112Z,24.3
2018-07-09T10:09:32.957Z,24.45
2018-07-09T10:10:32.968Z,24.59
2018-07-09T10:11:32.707Z,24.74
2018-07-09T10:12:32.966Z,25.04
2018-07-09T10:13:32.708Z,25.26
2018-07-09T10:14:32.455Z,25.38
2018-07-09T10:15:32.715Z,25.29
2018-07-09T10:16:33.024Z,25.09
2018-07-09T10:17:32.981Z,25.11
2018-07-09T10:18:32.727Z,24.94
2018-07-09T10:19:32.727Z,24.85
2018-07-09T10:20:32.725Z,24.89
2018-07-09T10:21:32.986Z,24.96
2018-07-09T10:22:32.729Z,24.87
2018-07-09T10:23:33.095Z,24.67
2018-07-09T10:24:32.733Z,24.59
2018-07-09T10:25:32.741Z,24.51
2018-07-09T10:26:32.998Z,24.42
2018-07-09T10:27:33.005Z,24.34
2018-07-09T10:28:33.004Z,24.26
2018-07-09T10:29:32.744Z,24.18
2018-07-09T10:30:33.327Z,24.32
2018-07-09T10:31:33.011Z,24.34
2018-07-09T10:32:33.016Z,24.45
2018-07-09T10:33:33.011Z,24.49
2018-07-09T10:34:33.025Z,24.61
2018-07-09T10:35:32.758Z,24.74
2018-07-09T10:36:32.762Z,24.74
2018-07-09T10:37:32.767Z,24.85
2018-07-09T10:38:33.026Z,25
2018-07-09T10:39:33.248Z,25.02
2018-07-09T10:40:32.771Z,24.93
2018-07-09T10:41:32.515Z,25.07
2018-07-09T10:42:33.038Z,25.11
2018-07-09T10:43:33.036Z,25.26
2018-07-09T10:44:33.038Z,25.27
2018-07-09T10:45:33.039Z,25.27
2018-07-09T10:46:33.040Z,25.26
2018-07-09T10:47:33.050Z,25.32
2018-07-09T10:48:33.047Z,25.33
2018-07-09T10:49:33.045Z,25.34
2018-07-09T10:50:32.792Z,25.38
2018-07-09T10:51:33.049Z,25.34
2018-07-09T10:52:33.054Z,25.37
2018-07-09T10:53:32.796Z,25.24
2018-07-09T10:54:33.058Z,25.32
2018-07-09T10:55:32.548Z,25.2
2018-07-09T10:56:32.805Z,25.11
2018-07-09T10:57:32.549Z,25.01
2018-07-09T10:58:33.075Z,25.07
2018-07-09T10:59:33.070Z,25.22
2018-07-09T11:00:33.075Z,25.12
2018-07-09T11:01:33.080Z,25.2
2018-07-09T11:02:32.820Z,25.24
2018-07-09T11:03:32.567Z,25.29
2018-07-09T11:04:32.835Z,25.3
2018-07-09T11:05:32.612Z,25.2
2018-07-09T11:06:33.092Z,25.05
2018-07-09T11:07:32.835Z,25
2018-07-09T11:08:33.094Z,24.69
2018-07-09T11:09:32.852Z,24.52
2018-07-09T11:10:32.844Z,24.54
2018-07-09T11:11:33.101Z,24.55
2018-07-09T11:12:33.110Z,24.54
2018-07-09T11:13:33.106Z,24.48
2018-07-09T11:14:32.855Z,24.36
2018-07-09T11:15:33.108Z,24.33
2018-07-09T11:16:32.853Z,24.24
2018-07-09T11:17:33.115Z,24.11
2018-07-09T11:18:32.860Z,23.99
2018-07-09T11:19:32.861Z,23.89
2018-07-09T11:20:33.126Z,23.9
2018-07-09T11:21:32.884Z,23.94
2018-07-09T11:22:33.126Z,24.15
2018-07-09T11:23:33.127Z,24.37
2018-07-09T11:24:33.130Z,24.39
2018-07-09T11:25:33.137Z,24.55
2018-07-09T11:26:33.134Z,24.67
2018-07-09T11:27:33.199Z,24.74
2018-07-09T11:28:33.139Z,24.85
2018-07-09T11:29:33.139Z,25.07
2018-07-09T11:30:33.141Z,25.11
2018-07-09T11:31:33.155Z,25.26
2018-07-09T11:32:33.146Z,25.37
2018-07-09T11:33:33.156Z,25.42
2018-07-09T11:34:33.151Z,25.54
2018-07-09T11:35:32.899Z,25.56
2018-07-09T11:36:33.326Z,25.63
2018-07-09T11:37:32.905Z,25.81
2018-07-09T11:38:32.646Z,25.94
2018-07-09T11:39:33.162Z,26.26
2018-07-09T11:40:32.932Z,26.31
2018-07-09T11:41:32.918Z,26.3
2018-07-09T11:42:32.916Z,26.12
2018-07-09T11:43:32.912Z,26.04
2018-07-09T11:44:32.918Z,26
2018-07-09T11:45:33.182Z,25.74
2018-07-09T11:46:33.182Z,25.57
2018-07-09T11:47:33.186Z,25.26
2018-07-09T11:48:33.197Z,25.2
2018-07-09T11:49:32.928Z,25.19
2018-07-09T11:50:33.191Z,25.23
2018-07-09T11:51:33.192Z,25.15
2018-07-09T11:52:32.943Z,24.94
2018-07-09T11:53:33.202Z,24.86
2018-07-09T11:54:33.199Z,24.58
2018-07-09T11:55:32.945Z,24.49
2018-07-09T11:56:33.204Z,24.45
2018-07-09T11:57:33.213Z,24.49
2018-07-09T11:58:33.290Z,24.7
2018-07-09T11:59:33.212Z,25.02
2018-07-09T12:00:32.962Z,25.17
2018-07-09T12:01:33.221Z,25.2
2018-07-09T12:02:33.229Z,25.51
2018-07-09T12:03:33.232Z,25.51
2018-07-09T12:04:33.226Z,25.67
2018-07-09T12:05:33.233Z,25.89
2018-07-09T12:06:33.284Z,25.91
2018-07-09T12:07:33.233Z,26.07
2018-07-09T12:08:32.725Z,26.06
2018-07-09T12:09:33.241Z,26.19
2018-07-09T12:10:33.243Z,26.09
2018-07-09T12:11:33.420Z,25.94
2018-07-09T12:12:33.258Z,25.82
2018-07-09T12:13:33.265Z,25.88
2018-07-09T12:14:32.996Z,25.89
2018-07-09T12:15:32.999Z,25.96
2018-07-09T12:16:33.004Z,25.93
2018-07-09T12:17:33.268Z,25.79
2018-07-09T12:18:33.263Z,25.79
2018-07-09T12:19:33.271Z,25.67
2018-07-09T12:20:33.015Z,25.64
2018-07-09T12:21:33.366Z,25.6
2018-07-09T12:22:33.023Z,25.57
2018-07-09T12:23:32.762Z,25.48
2018-07-09T12:24:33.284Z,25.24
2018-07-09T12:25:33.283Z,25.14
2018-07-09T12:26:33.290Z,25.09
2018-07-09T12:27:33.037Z,25.02
2018-07-09T12:28:33.289Z,25.19
2018-07-09T12:29:33.039Z,25.32
2018-07-09T12:30:33.041Z,25.27
2018-07-09T12:31:33.301Z,25.24
2018-07-09T12:32:33.306Z,25.3
2018-07-09T12:33:33.352Z,25.29
2018-07-09T12:34:32.796Z,25.29
2018-07-09T12:35:33.058Z,25.24
2018-07-09T12:36:32.895Z,25.07
2018-07-09T12:37:33.316Z,25.08
2018-07-09T12:38:33.320Z,25.07
2018-07-09T12:39:33.067Z,25.07
2018-07-09T12:40:33.067Z,25.05
2018-07-09T12:41:33.332Z,25.14
2018-07-09T12:42:33.077Z,25.24
2018-07-09T12:43:33.078Z,25.34
2018-07-09T12:44:33.340Z,25.39
2018-07-09T12:45:33.341Z,25.33
2018-07-09T12:46:33.338Z,25.52
2018-07-09T12:47:33.085Z,25.52
2018-07-09T12:48:33.119Z,25.57
2018-07-09T12:49:33.093Z,25.52
2018-07-09T12:50:33.360Z,25.66
2018-07-09T12:51:33.356Z,25.75
2018-07-09T12:52:33.355Z,25.91
2018-07-09T12:53:33.360Z,26.06
2018-07-09T12:54:33.106Z,26.15
2018-07-09T12:55:33.107Z,26.22
2018-07-09T12:56:33.111Z,26.32